sensor_id;sensor_type;location;lat;lon;timestamp;pressure;altitude;pressure_sealevel;temperature;humidity
62051;BME280;48008;51.204;6.766;2022-11-02T00:00:46;101170.91;;;13.01;69.20
62051;BME280;48008;51.204;6.766;2022-11-02T00:03:13;101175.06;;;12.95;69.99
62051;BME280;48008;51.204;6.766;2022-11-02T00:05:39;101165.59;;;13.01;70.05
62051;BME280;48008;51.204;6.766;2022-11-02T00:08:06;101173.25;;;13.04;69.48
62051;BME280;48008;51.204;6.766;2022-11-02T00:10:33;101177.22;;;13.00;69.63
62051;BME280;48008;51.204;6.766;2022-11-02T00:12:59;101179.25;;;13.06;70.18
62051;BME280;48008;51.204;6.766;2022-11-02T00:15:29;101186.56;;;13.04;71.36
62051;BME280;48008;51.204;6.766;2022-11-02T00:17:59;101183.06;;;13.03;72.13
62051;BME280;48008;51.204;6.766;2022-11-02T00:20:27;101172.91;;;12.99;72.64
62051;BME280;48008;51.204;6.766;2022-11-02T00:22:57;101184.06;;;13.02;73.18
62051;BME280;48008;51.204;6.766;2022-11-02T00:25:25;101173.75;;;13.07;73.03
62051;BME280;48008;51.204;6.766;2022-11-02T00:27:53;101180.25;;;13.05;73.59
62051;BME280;48008;51.204;6.766;2022-11-02T00:30:21;101171.75;;;13.01;72.82
62051;BME280;48008;51.204;6.766;2022-11-02T00:32:49;101175.06;;;12.95;73.57
62051;BME280;48008;51.204;6.766;2022-11-02T00:35:17;101179.38;;;12.96;73.58
62051;BME280;48008;51.204;6.766;2022-11-02T00:37:43;101172.72;;;13.00;74.24
62051;BME280;48008;51.204;6.766;2022-11-02T00:40:10;101172.25;;;13.05;73.02
62051;BME280;48008;51.204;6.766;2022-11-02T00:42:37;101177.44;;;13.06;73.01
62051;BME280;48008;51.204;6.766;2022-11-02T00:45:05;101177.06;;;13.01;73.08
62051;BME280;48008;51.204;6.766;2022-11-02T00:47:32;101184.56;;;13.06;73.19
62051;BME280;48008;51.204;6.766;2022-11-02T00:49:59;101169.75;;;13.03;73.70
62051;BME280;48008;51.204;6.766;2022-11-02T00:52:26;101175.59;;;13.07;73.73
62051;BME280;48008;51.204;6.766;2022-11-02T00:54:53;101185.28;;;13.16;72.69
62051;BME280;48008;51.204;6.766;2022-11-02T00:57:20;101176.75;;;13.04;72.95
62051;BME280;48008;51.204;6.766;2022-11-02T00:59:47;101183.44;;;13.09;72.31
62051;BME280;48008;51.204;6.766;2022-11-02T01:02:15;101181.06;;;13.05;72.18
62051;BME280;48008;51.204;6.766;2022-11-02T01:04:42;101181.94;;;13.14;72.35
62051;BME280;48008;51.204;6.766;2022-11-02T01:07:08;101186.47;;;13.22;71.29
62051;BME280;48008;51.204;6.766;2022-11-02T01:09:35;101185.22;;;13.34;69.88
62051;BME280;48008;51.204;6.766;2022-11-02T01:12:02;101186.91;;;13.35;69.90
62051;BME280;48008;51.204;6.766;2022-11-02T01:14:29;101185.59;;;13.39;70.41
62051;BME280;48008;51.204;6.766;2022-11-02T01:16:56;101191.94;;;13.47;69.04
62051;BME280;48008;51.204;6.766;2022-11-02T01:19:24;101191.06;;;13.46;69.42
62051;BME280;48008;51.204;6.766;2022-11-02T01:21:51;101193.13;;;13.52;69.15
62051;BME280;48008;51.204;6.766;2022-11-02T01:24:18;101193.41;;;13.41;69.30
62051;BME280;48008;51.204;6.766;2022-11-02T01:26:49;101195.56;;;13.46;69.24
62051;BME280;48008;51.204;6.766;2022-11-02T01:29:16;101198.59;;;13.42;69.31
62051;BME280;48008;51.204;6.766;2022-11-02T01:31:45;101193.63;;;13.56;68.89
62051;BME280;48008;51.204;6.766;2022-11-02T01:34:13;101188.28;;;13.56;69.37
62051;BME280;48008;51.204;6.766;2022-11-02T01:36:40;101186.97;;;13.52;69.07
62051;BME280;48008;51.204;6.766;2022-11-02T01:39:09;101181.78;;;13.58;68.67
62051;BME280;48008;51.204;6.766;2022-11-02T01:41:36;101177.31;;;13.59;68.99
62051;BME280;48008;51.204;6.766;2022-11-02T01:44:03;101186.75;;;13.45;69.38
62051;BME280;48008;51.204;6.766;2022-11-02T01:46:37;101191.41;;;13.43;69.38
62051;BME280;48008;51.204;6.766;2022-11-02T01:49:08;101188.09;;;13.41;69.44
62051;BME280;48008;51.204;6.766;2022-11-02T01:51:42;101181.22;;;13.38;69.45
62051;BME280;48008;51.204;6.766;2022-11-02T01:54:19;101187.22;;;13.32;69.71
62051;BME280;48008;51.204;6.766;2022-11-02T01:56:52;101180.56;;;13.36;69.95
62051;BME280;48008;51.204;6.766;2022-11-02T01:59:26;101191.00;;;13.30;69.95
62051;BME280;48008;51.204;6.766;2022-11-02T02:01:53;101199.72;;;13.32;69.61
62051;BME280;48008;51.204;6.766;2022-11-02T02:04:21;101188.81;;;13.25;70.21
62051;BME280;48008;51.204;6.766;2022-11-02T02:06:49;101189.66;;;13.25;69.99
62051;BME280;48008;51.204;6.766;2022-11-02T02:09:18;101196.00;;;13.24;70.12
62051;BME280;48008;51.204;6.766;2022-11-02T02:11:46;101188.78;;;13.17;70.83
62051;BME280;48008;51.204;6.766;2022-11-02T02:14:15;101185.28;;;13.16;70.34
62051;BME280;48008;51.204;6.766;2022-11-02T02:17:09;101191.94;;;13.12;70.73
62051;BME280;48008;51.204;6.766;2022-11-02T02:20:02;101189.44;;;13.11;70.73
62051;BME280;48008;51.204;6.766;2022-11-02T02:22:57;101187.22;;;13.06;70.88
62051;BME280;48008;51.204;6.766;2022-11-02T02:26:06;101183.88;;;13.04;71.24
62051;BME280;48008;51.204;6.766;2022-11-02T02:29:01;101187.22;;;13.06;71.29
62051;BME280;48008;51.204;6.766;2022-11-02T02:31:38;101199.41;;;13.09;71.22
62051;BME280;48008;51.204;6.766;2022-11-02T02:34:34;101192.91;;;13.11;71.12
62051;BME280;48008;51.204;6.766;2022-11-02T02:37:07;101191.94;;;13.12;71.25
62051;BME280;48008;51.204;6.766;2022-11-02T02:42:23;101192.75;;;13.04;71.41
62051;BME280;48008;51.204;6.766;2022-11-02T02:45:15;101188.03;;;12.98;71.33
62051;BME280;48008;51.204;6.766;2022-11-02T02:47:51;101189.75;;;13.07;70.92
62051;BME280;48008;51.204;6.766;2022-11-02T02:50:23;101190.84;;;12.97;71.52
62051;BME280;48008;51.204;6.766;2022-11-02T02:52:54;101199.84;;;12.96;71.06
62051;BME280;48008;51.204;6.766;2022-11-02T02:55:26;101198.00;;;12.96;71.04
62051;BME280;48008;51.204;6.766;2022-11-02T02:57:59;101195.22;;;13.06;70.51
62051;BME280;48008;51.204;6.766;2022-11-02T03:00:27;101192.41;;;13.07;70.12
62051;BME280;48008;51.204;6.766;2022-11-02T03:02:56;101199.56;;;13.07;70.03
62051;BME280;48008;51.204;6.766;2022-11-02T03:05:32;101195.72;;;13.01;70.37
62051;BME280;48008;51.204;6.766;2022-11-02T03:08:05;101207.72;;;13.05;69.68
62051;BME280;48008;51.204;6.766;2022-11-02T03:10:40;101200.09;;;13.11;69.83
62051;BME280;48008;51.204;6.766;2022-11-02T03:13:24;101212.22;;;13.05;69.67
62051;BME280;48008;51.204;6.766;2022-11-02T03:16:02;101208.00;;;12.94;69.85
62051;BME280;48008;51.204;6.766;2022-11-02T03:18:40;101214.81;;;12.97;69.94
62051;BME280;48008;51.204;6.766;2022-11-02T03:21:17;101213.31;;;12.94;69.94
62051;BME280;48008;51.204;6.766;2022-11-02T03:24:14;101211.81;;;12.92;69.75
62051;BME280;48008;51.204;6.766;2022-11-02T03:27:01;101216.50;;;12.98;69.51
62051;BME280;48008;51.204;6.766;2022-11-02T03:29:56;101226.63;;;12.94;69.59
62051;BME280;48008;51.204;6.766;2022-11-02T03:32:35;101232.78;;;12.95;69.94
62051;BME280;48008;51.204;6.766;2022-11-02T03:35:15;101230.28;;;12.93;70.12
62051;BME280;48008;51.204;6.766;2022-11-02T03:37:51;101225.97;;;13.00;69.82
62051;BME280;48008;51.204;6.766;2022-11-02T03:40:25;101230.19;;;13.03;69.60
62051;BME280;48008;51.204;6.766;2022-11-02T03:42:55;101235.28;;;12.96;70.53
62051;BME280;48008;51.204;6.766;2022-11-02T03:45:27;101240.06;;;12.84;70.36
62051;BME280;48008;51.204;6.766;2022-11-02T03:48:01;101238.97;;;12.95;70.55
62051;BME280;48008;51.204;6.766;2022-11-02T03:50:31;101241.25;;;12.90;70.15
62051;BME280;48008;51.204;6.766;2022-11-02T03:53:05;101249.41;;;12.89;70.11
62051;BME280;48008;51.204;6.766;2022-11-02T03:55:36;101243.41;;;12.86;69.73
62051;BME280;48008;51.204;6.766;2022-11-02T03:58:09;101255.66;;;12.79;70.72
62051;BME280;48008;51.204;6.766;2022-11-02T04:00:46;101247.88;;;12.86;69.28
62051;BME280;48008;51.204;6.766;2022-11-02T04:03:13;101255.19;;;12.84;69.50
62051;BME280;48008;51.204;6.766;2022-11-02T04:05:43;101264.31;;;12.81;68.87
62051;BME280;48008;51.204;6.766;2022-11-02T04:08:28;101278.94;;;12.77;69.61
62051;BME280;48008;51.204;6.766;2022-11-02T04:11:01;101282.97;;;12.81;68.63
62051;BME280;48008;51.204;6.766;2022-11-02T04:13:49;101276.28;;;12.77;69.44
62051;BME280;48008;51.204;6.766;2022-11-02T04:16:39;101283.53;;;12.67;69.28
62051;BME280;48008;51.204;6.766;2022-11-02T04:19:12;101289.66;;;12.67;69.79
62051;BME280;48008;51.204;6.766;2022-11-02T04:21:59;101295.31;;;12.64;70.11
62051;BME280;48008;51.204;6.766;2022-11-02T04:24:49;101295.84;;;12.68;69.58
62051;BME280;48008;51.204;6.766;2022-11-02T04:27:37;101294.31;;;12.65;69.82
62051;BME280;48008;51.204;6.766;2022-11-02T04:30:05;101293.63;;;12.63;70.39
62051;BME280;48008;51.204;6.766;2022-11-02T04:32:38;101299.22;;;12.52;70.46
62051;BME280;48008;51.204;6.766;2022-11-02T04:35:31;101294.84;;;12.51;70.92
62051;BME280;48008;51.204;6.766;2022-11-02T04:37:58;101308.16;;;12.51;70.92
62051;BME280;48008;51.204;6.766;2022-11-02T04:40:45;101311.34;;;12.55;70.56
62051;BME280;48008;51.204;6.766;2022-11-02T04:43:12;101314.78;;;12.47;71.17
62051;BME280;48008;51.204;6.766;2022-11-02T04:45:39;101312.81;;;12.49;71.17
62051;BME280;48008;51.204;6.766;2022-11-02T04:48:08;101321.09;;;12.46;71.50
62051;BME280;48008;51.204;6.766;2022-11-02T04:50:35;101321.69;;;12.40;71.75
62051;BME280;48008;51.204;6.766;2022-11-02T04:53:05;101325.38;;;12.39;72.07
62051;BME280;48008;51.204;6.766;2022-11-02T04:55:34;101331.72;;;12.46;71.77
62051;BME280;48008;51.204;6.766;2022-11-02T04:58:01;101338.97;;;12.36;71.95
62051;BME280;48008;51.204;6.766;2022-11-02T05:00:28;101342.06;;;12.31;72.31
62051;BME280;48008;51.204;6.766;2022-11-02T05:02:56;101344.44;;;12.34;72.27
62051;BME280;48008;51.204;6.766;2022-11-02T05:05:24;101332.97;;;12.34;72.31
62051;BME280;48008;51.204;6.766;2022-11-02T05:07:54;101334.84;;;12.23;72.63
62051;BME280;48008;51.204;6.766;2022-11-02T05:10:21;101353.38;;;12.33;72.24
62051;BME280;48008;51.204;6.766;2022-11-02T05:12:56;101345.94;;;12.37;72.23
62051;BME280;48008;51.204;6.766;2022-11-02T05:15:25;101345.50;;;12.41;71.48
62051;BME280;48008;51.204;6.766;2022-11-02T05:17:52;101342.38;;;12.46;70.92
62051;BME280;48008;51.204;6.766;2022-11-02T05:20:19;101357.81;;;12.42;71.37
62051;BME280;48008;51.204;6.766;2022-11-02T05:22:46;101353.78;;;12.38;71.27
62051;BME280;48008;51.204;6.766;2022-11-02T05:25:15;101354.38;;;12.32;71.27
62051;BME280;48008;51.204;6.766;2022-11-02T05:27:41;101353.72;;;12.30;71.39
62051;BME280;48008;51.204;6.766;2022-11-02T05:30:09;101350.50;;;12.26;71.55
62051;BME280;48008;51.204;6.766;2022-11-02T05:32:36;101365.47;;;12.27;71.23
62051;BME280;48008;51.204;6.766;2022-11-02T05:35:03;101372.47;;;12.28;71.40
62051;BME280;48008;51.204;6.766;2022-11-02T05:37:32;101360.16;;;12.27;70.33
62051;BME280;48008;51.204;6.766;2022-11-02T05:39:59;101374.13;;;12.29;70.26
62051;BME280;48008;51.204;6.766;2022-11-02T05:42:26;101372.63;;;12.27;70.84
62051;BME280;48008;51.204;6.766;2022-11-02T05:44:53;101379.63;;;12.28;70.69
62051;BME280;48008;51.204;6.766;2022-11-02T05:47:19;101377.00;;;12.18;71.41
62051;BME280;48008;51.204;6.766;2022-11-02T05:49:46;101371.47;;;12.12;70.68
62051;BME280;48008;51.204;6.766;2022-11-02T05:52:13;101386.34;;;12.22;70.82
62051;BME280;48008;51.204;6.766;2022-11-02T05:54:40;101389.56;;;12.26;70.31
62051;BME280;48008;51.204;6.766;2022-11-02T05:57:06;101389.75;;;12.15;70.77
62051;BME280;48008;51.204;6.766;2022-11-02T05:59:34;101393.72;;;12.10;70.65
62051;BME280;48008;51.204;6.766;2022-11-02T06:02:00;101393.44;;;12.14;70.57
62051;BME280;48008;51.204;6.766;2022-11-02T06:04:27;101399.72;;;12.13;70.92
62051;BME280;48008;51.204;6.766;2022-11-02T06:06:54;101404.97;;;12.04;70.81
62051;BME280;48008;51.204;6.766;2022-11-02T06:09:21;101403.94;;;12.05;70.82
62051;BME280;48008;51.204;6.766;2022-11-02T06:11:47;101404.97;;;11.95;71.33
62051;BME280;48008;51.204;6.766;2022-11-02T06:14:14;101407.06;;;12.01;71.07
62051;BME280;48008;51.204;6.766;2022-11-02T06:16:41;101415.34;;;11.98;71.05
62051;BME280;48008;51.204;6.766;2022-11-02T06:19:07;101419.22;;;12.03;71.26
62051;BME280;48008;51.204;6.766;2022-11-02T06:21:34;101407.63;;;12.04;70.62
62051;BME280;48008;51.204;6.766;2022-11-02T06:24:01;101419.28;;;11.94;70.99
62051;BME280;48008;51.204;6.766;2022-11-02T06:26:27;101425.09;;;12.07;70.89
62051;BME280;48008;51.204;6.766;2022-11-02T06:28:54;101424.44;;;11.95;71.34
62051;BME280;48008;51.204;6.766;2022-11-02T06:31:21;101420.25;;;11.93;71.51
62051;BME280;48008;51.204;6.766;2022-11-02T06:33:48;101431.13;;;11.89;71.97
62051;BME280;48008;51.204;6.766;2022-11-02T06:36:14;101437.19;;;11.92;71.50
62051;BME280;48008;51.204;6.766;2022-11-02T06:38:42;101436.63;;;11.88;71.92
62051;BME280;48008;51.204;6.766;2022-11-02T06:41:09;101437.88;;;11.84;71.82
62051;BME280;48008;51.204;6.766;2022-11-02T06:43:37;101455.66;;;11.83;72.24
62051;BME280;48008;51.204;6.766;2022-11-02T06:46:04;101455.22;;;11.88;72.20
62051;BME280;48008;51.204;6.766;2022-11-02T06:48:31;101458.84;;;11.87;72.13
62051;BME280;48008;51.204;6.766;2022-11-02T06:51:00;101463.03;;;11.89;72.12
62051;BME280;48008;51.204;6.766;2022-11-02T06:53:27;101469.34;;;11.88;72.18
62051;BME280;48008;51.204;6.766;2022-11-02T06:55:55;101471.19;;;11.88;72.30
62051;BME280;48008;51.204;6.766;2022-11-02T06:58:23;101472.97;;;11.87;72.29
62051;BME280;48008;51.204;6.766;2022-11-02T07:00:56;101486.03;;;11.90;72.40
62051;BME280;48008;51.204;6.766;2022-11-02T07:03:23;101494.25;;;11.87;72.41
62051;BME280;48008;51.204;6.766;2022-11-02T07:05:50;101499.31;;;11.81;72.70
62051;BME280;48008;51.204;6.766;2022-11-02T07:08:18;101509.81;;;11.92;72.47
62051;BME280;48008;51.204;6.766;2022-11-02T07:10:45;101515.09;;;11.82;73.09
62051;BME280;48008;51.204;6.766;2022-11-02T07:13:12;101519.03;;;11.88;72.52
62051;BME280;48008;51.204;6.766;2022-11-02T07:15:39;101526.19;;;11.97;72.38
62051;BME280;48008;51.204;6.766;2022-11-02T07:18:06;101532.06;;;12.01;71.80
62051;BME280;48008;51.204;6.766;2022-11-02T07:20:33;101531.88;;;12.02;72.17
62051;BME280;48008;51.204;6.766;2022-11-02T07:23:01;101537.50;;;11.99;72.30
62051;BME280;48008;51.204;6.766;2022-11-02T07:25:29;101535.63;;;12.09;72.07
62051;BME280;48008;51.204;6.766;2022-11-02T07:27:57;101552.16;;;12.13;71.57
62051;BME280;48008;51.204;6.766;2022-11-02T07:30:27;101551.47;;;12.11;70.94
62051;BME280;48008;51.204;6.766;2022-11-02T07:32:54;101555.53;;;12.05;71.68
62051;BME280;48008;51.204;6.766;2022-11-02T07:35:21;101555.13;;;12.10;71.31
62051;BME280;48008;51.204;6.766;2022-11-02T07:38:04;101567.72;;;12.08;71.49
62051;BME280;48008;51.204;6.766;2022-11-02T07:40:34;101569.94;;;12.13;71.38
62051;BME280;48008;51.204;6.766;2022-11-02T07:43:02;101574.16;;;12.15;71.73
62051;BME280;48008;51.204;6.766;2022-11-02T07:45:40;101594.69;;;12.13;71.37
62051;BME280;48008;51.204;6.766;2022-11-02T07:48:07;101581.13;;;12.16;71.11
62051;BME280;48008;51.204;6.766;2022-11-02T07:50:34;101590.66;;;12.19;71.11
62051;BME280;48008;51.204;6.766;2022-11-02T07:53:01;101594.69;;;12.23;70.53
62051;BME280;48008;51.204;6.766;2022-11-02T07:55:29;101607.44;;;12.19;70.84
62051;BME280;48008;51.204;6.766;2022-11-02T07:57:59;101608.09;;;12.31;70.47
62051;BME280;48008;51.204;6.766;2022-11-02T08:00:29;101619.94;;;12.56;69.38
62051;BME280;48008;51.204;6.766;2022-11-02T08:02:58;101614.25;;;12.79;68.49
62051;BME280;48008;51.204;6.766;2022-11-02T08:05:26;101617.00;;;12.49;69.53
62051;BME280;48008;51.204;6.766;2022-11-02T08:07:57;101621.72;;;12.65;69.21
62051;BME280;48008;51.204;6.766;2022-11-02T08:10:24;101622.53;;;13.03;67.32
62051;BME280;48008;51.204;6.766;2022-11-02T08:12:51;101646.09;;;12.98;67.05
62051;BME280;48008;51.204;6.766;2022-11-02T08:15:17;101638.09;;;13.26;66.37
62051;BME280;48008;51.204;6.766;2022-11-02T08:17:44;101638.50;;;13.31;66.17
62051;BME280;48008;51.204;6.766;2022-11-02T08:20:11;101634.91;;;12.95;67.42
62051;BME280;48008;51.204;6.766;2022-11-02T08:22:39;101639.25;;;12.68;68.74
62051;BME280;48008;51.204;6.766;2022-11-02T08:25:06;101638.44;;;12.58;68.96
62051;BME280;48008;51.204;6.766;2022-11-02T08:27:33;101631.72;;;12.54;68.84
62051;BME280;48008;51.204;6.766;2022-11-02T08:30:00;101634.06;;;12.57;69.13
62051;BME280;48008;51.204;6.766;2022-11-02T08:32:27;101643.06;;;12.56;68.67
62051;BME280;48008;51.204;6.766;2022-11-02T08:34:53;101647.00;;;12.52;69.10
62051;BME280;48008;51.204;6.766;2022-11-02T08:37:20;101642.66;;;12.51;69.58
62051;BME280;48008;51.204;6.766;2022-11-02T08:39:47;101646.81;;;12.63;69.07
62051;BME280;48008;51.204;6.766;2022-11-02T08:42:16;101650.75;;;12.59;69.11
62051;BME280;48008;51.204;6.766;2022-11-02T08:44:43;101648.53;;;12.54;70.09
62051;BME280;48008;51.204;6.766;2022-11-02T08:47:09;101648.34;;;12.65;69.79
62051;BME280;48008;51.204;6.766;2022-11-02T08:49:36;101641.19;;;12.66;69.21
62051;BME280;48008;51.204;6.766;2022-11-02T08:52:03;101650.91;;;12.57;69.77
62051;BME280;48008;51.204;6.766;2022-11-02T08:54:30;101655.22;;;12.68;69.45
62051;BME280;48008;51.204;6.766;2022-11-02T08:56:56;101651.13;;;12.64;68.85
62051;BME280;48008;51.204;6.766;2022-11-02T08:59:23;101659.03;;;12.56;69.50
62051;BME280;48008;51.204;6.766;2022-11-02T09:01:49;101659.13;;;12.64;69.54
62051;BME280;48008;51.204;6.766;2022-11-02T09:04:16;101672.75;;;12.51;70.07
62051;BME280;48008;51.204;6.766;2022-11-02T09:06:43;101664.84;;;12.69;69.92
62051;BME280;48008;51.204;6.766;2022-11-02T09:09:10;101664.84;;;12.79;69.63
62051;BME280;48008;51.204;6.766;2022-11-02T09:11:36;101671.53;;;12.83;69.62
62051;BME280;48008;51.204;6.766;2022-11-02T09:14:03;101669.44;;;12.86;69.39
62051;BME280;48008;51.204;6.766;2022-11-02T09:16:30;101672.88;;;12.97;69.68
62051;BME280;48008;51.204;6.766;2022-11-02T09:18:58;101682.75;;;12.86;68.74
62051;BME280;48008;51.204;6.766;2022-11-02T09:21:24;101680.63;;;12.90;68.29
62051;BME280;48008;51.204;6.766;2022-11-02T09:23:51;101676.25;;;12.99;68.01
62051;BME280;48008;51.204;6.766;2022-11-02T09:26:17;101677.09;;;12.99;67.75
62051;BME280;48008;51.204;6.766;2022-11-02T09:28:44;101685.00;;;13.09;67.86
62051;BME280;48008;51.204;6.766;2022-11-02T09:31:11;101699.34;;;13.08;67.34
62051;BME280;48008;51.204;6.766;2022-11-02T09:33:37;101695.94;;;13.16;67.07
62051;BME280;48008;51.204;6.766;2022-11-02T09:36:05;101702.84;;;13.09;66.57
62051;BME280;48008;51.204;6.766;2022-11-02T09:38:32;101699.72;;;13.13;66.54
62051;BME280;48008;51.204;6.766;2022-11-02T09:43:59;101701.53;;;13.13;66.79
62051;BME280;48008;51.204;6.766;2022-11-02T09:46:32;101697.50;;;13.09;65.90
62051;BME280;48008;51.204;6.766;2022-11-02T09:49:03;101698.78;;;13.04;66.58
62051;BME280;48008;51.204;6.766;2022-11-02T09:51:36;101698.88;;;13.13;65.50
62051;BME280;48008;51.204;6.766;2022-11-02T09:54:07;101699.22;;;13.28;65.10
62051;BME280;48008;51.204;6.766;2022-11-02T09:56:39;101712.00;;;13.24;64.20
62051;BME280;48008;51.204;6.766;2022-11-02T09:59:17;101702.63;;;13.20;65.15
62051;BME280;48008;51.204;6.766;2022-11-02T10:02:09;101703.16;;;13.33;64.62
62051;BME280;48008;51.204;6.766;2022-11-02T10:08:24;101701.97;;;13.46;64.18
62051;BME280;48008;51.204;6.766;2022-11-02T10:10:37;101712.47;;;13.47;63.12
62051;BME280;48008;51.204;6.766;2022-11-02T10:13:31;101705.56;;;13.54;63.34
62051;BME280;48008;51.204;6.766;2022-11-02T10:16:05;101707.47;;;13.62;62.73
62051;BME280;48008;51.204;6.766;2022-11-02T10:18:34;101704.13;;;13.60;63.00
62051;BME280;48008;51.204;6.766;2022-11-02T10:21:08;101711.16;;;13.61;62.86
62051;BME280;48008;51.204;6.766;2022-11-02T10:23:41;101707.78;;;13.59;61.18
62051;BME280;48008;51.204;6.766;2022-11-02T10:26:15;101705.88;;;13.69;61.91
62051;BME280;48008;51.204;6.766;2022-11-02T10:28:47;101722.97;;;13.76;60.96
62051;BME280;48008;51.204;6.766;2022-11-02T10:31:25;101723.25;;;13.91;60.98
62051;BME280;48008;51.204;6.766;2022-11-02T10:33:55;101719.00;;;13.98;60.97
62051;BME280;48008;51.204;6.766;2022-11-02T10:36:35;101713.28;;;14.11;60.36
62051;BME280;48008;51.204;6.766;2022-11-02T10:39:31;101723.13;;;14.11;60.01
62051;BME280;48008;51.204;6.766;2022-11-02T10:45:34;101731.25;;;15.74;52.98
62051;BME280;48008;51.204;6.766;2022-11-02T10:48:30;101733.28;;;18.74;44.79
62051;BME280;48008;51.204;6.766;2022-11-02T10:51:06;101737.22;;;19.16;43.55
62051;BME280;48008;51.204;6.766;2022-11-02T10:53:38;101743.53;;;19.96;40.88
62051;BME280;48008;51.204;6.766;2022-11-02T10:56:17;101733.91;;;20.86;39.27
62051;BME280;48008;51.204;6.766;2022-11-02T10:59:19;101727.97;;;20.98;38.76
62051;BME280;48008;51.204;6.766;2022-11-02T11:04:34;101734.56;;;21.85;36.81
62051;BME280;48008;51.204;6.766;2022-11-02T11:07:06;101733.72;;;21.23;37.35
62051;BME280;48008;51.204;6.766;2022-11-02T11:09:53;101732.66;;;21.79;37.46
62051;BME280;48008;51.204;6.766;2022-11-02T11:12:36;101729.59;;;22.22;36.85
62051;BME280;48008;51.204;6.766;2022-11-02T11:15:03;101738.28;;;21.84;36.95
62051;BME280;48008;51.204;6.766;2022-11-02T11:17:52;101739.41;;;22.56;35.01
62051;BME280;48008;51.204;6.766;2022-11-02T11:20:40;101747.53;;;23.35;33.71
62051;BME280;48008;51.204;6.766;2022-11-02T11:23:15;101753.47;;;22.92;33.95
62051;BME280;48008;51.204;6.766;2022-11-02T11:25:56;101754.38;;;22.72;34.54
62051;BME280;48008;51.204;6.766;2022-11-02T11:28:29;101750.75;;;22.92;33.36
62051;BME280;48008;51.204;6.766;2022-11-02T11:31:16;101751.50;;;21.52;35.52
62051;BME280;48008;51.204;6.766;2022-11-02T11:33:49;101738.63;;;21.61;36.13
62051;BME280;48008;51.204;6.766;2022-11-02T11:36:26;101737.72;;;20.14;38.06
62051;BME280;48008;51.204;6.766;2022-11-02T11:38:58;101726.78;;;20.22;37.91
62051;BME280;48008;51.204;6.766;2022-11-02T11:41:26;101733.97;;;18.38;41.03
62051;BME280;48008;51.204;6.766;2022-11-02T11:43:53;101730.03;;;17.08;45.50
62051;BME280;48008;51.204;6.766;2022-11-02T11:46:20;101737.69;;;17.12;45.87
62051;BME280;48008;51.204;6.766;2022-11-02T11:48:50;101732.22;;;17.05;46.99
62051;BME280;48008;51.204;6.766;2022-11-02T11:51:33;101729.91;;;16.94;47.41
62051;BME280;48008;51.204;6.766;2022-11-02T11:54:08;101736.66;;;16.40;47.57
62051;BME280;48008;51.204;6.766;2022-11-02T11:56:40;101731.31;;;16.32;47.05
62051;BME280;48008;51.204;6.766;2022-11-02T11:59:28;101723.75;;;15.95;48.71
62051;BME280;48008;51.204;6.766;2022-11-02T12:01:58;101725.28;;;16.38;47.64
62051;BME280;48008;51.204;6.766;2022-11-02T12:04:30;101722.78;;;16.28;48.42
62051;BME280;48008;51.204;6.766;2022-11-02T12:10:02;101723.91;;;16.83;47.57
62051;BME280;48008;51.204;6.766;2022-11-02T12:15:33;101711.88;;;17.81;45.71
62051;BME280;48008;51.204;6.766;2022-11-02T12:21:33;101710.72;;;18.07;44.99
62051;BME280;48008;51.204;6.766;2022-11-02T12:24:22;101717.16;;;18.21;44.21
62051;BME280;48008;51.204;6.766;2022-11-02T12:27:06;101711.78;;;19.18;42.90
62051;BME280;48008;51.204;6.766;2022-11-02T12:30:02;101717.25;;;19.98;41.60
62051;BME280;48008;51.204;6.766;2022-11-02T12:32:53;101708.84;;;19.50;42.21
62051;BME280;48008;51.204;6.766;2022-11-02T12:35:54;101705.91;;;19.45;42.89
62051;BME280;48008;51.204;6.766;2022-11-02T12:41:45;101712.44;;;19.06;42.96
62051;BME280;48008;51.204;6.766;2022-11-02T12:44:34;101707.47;;;18.50;45.03
62051;BME280;48008;51.204;6.766;2022-11-02T12:47:33;101706.00;;;17.55;47.69
62051;BME280;48008;51.204;6.766;2022-11-02T12:54:24;101702.78;;;20.27;40.62
62051;BME280;48008;51.204;6.766;2022-11-02T12:56:21;101694.78;;;19.69;41.63
62051;BME280;48008;51.204;6.766;2022-11-02T12:58:50;101697.97;;;19.22;42.11
62051;BME280;48008;51.204;6.766;2022-11-02T13:01:28;101700.53;;;18.55;43.27
62051;BME280;48008;51.204;6.766;2022-11-02T13:04:08;101692.41;;;17.56;45.74
62051;BME280;48008;51.204;6.766;2022-11-02T13:06:41;101690.56;;;17.57;47.32
62051;BME280;48008;51.204;6.766;2022-11-02T13:09:15;101686.31;;;19.51;42.89
62051;BME280;48008;51.204;6.766;2022-11-02T13:11:47;101674.56;;;20.51;40.30
62051;BME280;48008;51.204;6.766;2022-11-02T13:14:19;101686.69;;;20.34;40.46
62051;BME280;48008;51.204;6.766;2022-11-02T13:17:22;101681.16;;;20.14;41.03
62051;BME280;48008;51.204;6.766;2022-11-02T13:19:54;101681.16;;;18.30;44.26
62051;BME280;48008;51.204;6.766;2022-11-02T13:22:27;101681.66;;;17.64;45.73
62051;BME280;48008;51.204;6.766;2022-11-02T13:25:02;101678.97;;;19.23;43.06
62051;BME280;48008;51.204;6.766;2022-11-02T13:27:34;101671.84;;;19.95;41.36
62051;BME280;48008;51.204;6.766;2022-11-02T13:30:18;101676.88;;;19.98;40.97
62051;BME280;48008;51.204;6.766;2022-11-02T13:32:51;101679.28;;;18.84;42.57
62051;BME280;48008;51.204;6.766;2022-11-02T13:35:27;101666.78;;;17.77;45.52
62051;BME280;48008;51.204;6.766;2022-11-02T13:40:47;101656.72;;;19.14;43.14
62051;BME280;48008;51.204;6.766;2022-11-02T13:43:44;101659.94;;;19.25;42.63
62051;BME280;48008;51.204;6.766;2022-11-02T13:46:32;101669.66;;;19.26;42.72
62051;BME280;48008;51.204;6.766;2022-11-02T13:49:12;101672.59;;;18.65;43.74
62051;BME280;48008;51.204;6.766;2022-11-02T13:51:45;101665.00;;;18.15;44.59